EDDG/FMO METAR and TAF weather

Enter ICAO airport designator
Station Type Date Time Source
EDDG METAR 2022/01/29 10:20 UTC NOAA

EDDG 291020Z 23014KT 4000 -RADZ BKN006 08/07 Q1020 BECMG 9000 BKN012


Station Type Date Time Source
EDDG Decoded METAR 2022/01/29 10:20 UTC NOAA

Muenster / Osnabrueck, Germany (EDDG) 52-08N 007-42E 53M
Jan 29, 2022 - 05:20 AM EST / 2022.01.29 1020 UTC
Wind: from the SW (230 degrees) at 16 MPH (14 KT):0
Visibility: 2 mile(s):0
Sky conditions: mostly cloudy
Weather: light rain, drizzle
Temperature: 46 F (8 C)
Dew Point: 44 F (7 C)
Relative Humidity: 93%
Pressure (altimeter): 30.12 in. Hg (1020 hPa)
ob: EDDG 291020Z 23014KT 4000 -RADZ BKN006 08/07 Q1020 BECMG 9000 BKN012
cycle: 10

Station Type Date Time Source
EDDG TAF 2022/01/29 09:38 UTC NOAA

TAF
AMD EDDG 290927Z 2909/3006 24015G25KT 8000 BKN006
TEMPO 2909/2911 4000 BR
BECMG 2910/2913 BKN013
TEMPO 2912/2915 26020G35KT
BECMG 2913/2916 BKN020
BECMG 2915/2918 29020G35KT
BECMG 2919/2922 26015G25KT
BECMG 3003/3006 27012KT

Example: see airport list